KMLF

Milford Municipal / Ben and Judy Briscoe Field Airport

Milford, Utah, USA
METAR KMLF 232222Z AUTO 01016KT 10SM SCT029 OVC035 M03/M08 A3003 RMK AO2 WSHFT 2208 T10331078
Observed Flight Rules
Feb-23 @ 22:22 UTC (15 minutes ago) Visual Flight Rules
Wind Visibility Clouds
10° at 16 knots 10 miles
  • Scattered at 2,900' AGL
  • Overcast at 3,500' AGL
Temperatures Readings
Current -3°C / 27°F
Dewpoint -8°C / 18°F
Humidity 69%
Altimeter 30.03" Hg
Pressure 1017 hPa
Elevation 1534
METAR KMLF 232222Z AUTO 01016KT 10SM SCT029 OVC035 M03/M08 A3003 RMK AO2 WSHFT 2208 T10331078
Observed Flight Rules
Feb-23 @ 22:22 UTC
(15 minutes ago)
VFR
Wind Visibility
10° at 16 knots 10 miles
Clouds
  • Scattered at 2,900' AGL
  • Overcast at 3,500' AGL
Temperature Dewpoint
-3°C / 27°F -8°C / 18°F
Humidity Altimeter Pressure
69% 30.03" Hg 1017 hPa